sensor_id;sensor_type;location;lat;lon;timestamp;pressure;altitude;pressure_sealevel;temperature;humidity
64841;BME280;51307;52.162;7.560;2023-05-07T00:00:32;101178.84;;;15.87;58.36
64841;BME280;51307;52.162;7.560;2023-05-07T00:02:59;101174.38;;;15.79;57.97
64841;BME280;51307;52.162;7.560;2023-05-07T00:05:25;101170.56;;;15.89;58.03
64841;BME280;51307;52.162;7.560;2023-05-07T00:07:51;101165.53;;;15.86;58.14
64841;BME280;51307;52.162;7.560;2023-05-07T00:10:18;101171.31;;;15.83;58.01
64841;BME280;51307;52.162;7.560;2023-05-07T00:12:47;101176.53;;;15.69;58.41
64841;BME280;51307;52.162;7.560;2023-05-07T00:15:12;101170.94;;;15.86;57.72
64841;BME280;51307;52.162;7.560;2023-05-07T00:17:38;101167.47;;;15.92;57.50
64841;BME280;51307;52.162;7.560;2023-05-07T00:20:04;101172.53;;;15.80;57.78
64841;BME280;51307;52.162;7.560;2023-05-07T00:22:30;101178.06;;;15.63;58.38
64841;BME280;51307;52.162;7.560;2023-05-07T00:24:57;101185.03;;;15.58;58.45
64841;BME280;51307;52.162;7.560;2023-05-07T00:27:23;101184.81;;;15.83;57.60
64841;BME280;51307;52.162;7.560;2023-05-07T00:29:49;101190.19;;;15.83;57.47
64841;BME280;51307;52.162;7.560;2023-05-07T00:32:15;101187.56;;;15.74;57.29
64841;BME280;51307;52.162;7.560;2023-05-07T00:34:40;101189.63;;;15.72;57.50
64841;BME280;51307;52.162;7.560;2023-05-07T00:37:06;101183.38;;;15.57;58.08
64841;BME280;51307;52.162;7.560;2023-05-07T00:39:33;101188.31;;;15.68;57.90
64841;BME280;51307;52.162;7.560;2023-05-07T00:41:59;101190.63;;;15.71;57.46
64841;BME280;51307;52.162;7.560;2023-05-07T00:44:24;101184.13;;;15.80;57.60
64841;BME280;51307;52.162;7.560;2023-05-07T00:46:50;101191.94;;;15.75;57.75
64841;BME280;51307;52.162;7.560;2023-05-07T00:49:16;101194.00;;;15.58;58.07
64841;BME280;51307;52.162;7.560;2023-05-07T00:51:42;101209.09;;;15.44;58.52
64841;BME280;51307;52.162;7.560;2023-05-07T00:54:08;101203.25;;;15.41;58.76
64841;BME280;51307;52.162;7.560;2023-05-07T00:56:34;101196.78;;;15.65;57.67
64841;BME280;51307;52.162;7.560;2023-05-07T00:59:02;101195.72;;;15.51;58.57
64841;BME280;51307;52.162;7.560;2023-05-07T01:01:28;101199.53;;;15.57;57.51
64841;BME280;51307;52.162;7.560;2023-05-07T01:03:54;101205.03;;;15.49;57.73
64841;BME280;51307;52.162;7.560;2023-05-07T01:06:23;101211.91;;;15.51;57.83
64841;BME280;51307;52.162;7.560;2023-05-07T01:08:51;101197.16;;;15.39;57.87
64841;BME280;51307;52.162;7.560;2023-05-07T01:11:19;101200.88;;;15.38;58.08
64841;BME280;51307;52.162;7.560;2023-05-07T01:13:50;101194.91;;;15.27;58.60
64841;BME280;51307;52.162;7.560;2023-05-07T01:16:16;101196.94;;;15.49;58.10
64841;BME280;51307;52.162;7.560;2023-05-07T01:18:42;101190.34;;;15.51;57.92
64841;BME280;51307;52.162;7.560;2023-05-07T01:21:10;101187.81;;;15.50;57.87
64841;BME280;51307;52.162;7.560;2023-05-07T01:23:38;101191.66;;;15.32;57.74
64841;BME280;51307;52.162;7.560;2023-05-07T01:26:03;101191.81;;;15.54;57.53
64841;BME280;51307;52.162;7.560;2023-05-07T01:28:29;101202.25;;;15.34;58.11
64841;BME280;51307;52.162;7.560;2023-05-07T01:31:01;101197.34;;;14.99;59.10
64841;BME280;51307;52.162;7.560;2023-05-07T01:33:31;101191.28;;;14.97;58.85
64841;BME280;51307;52.162;7.560;2023-05-07T01:35:59;101182.19;;;15.36;57.92
64841;BME280;51307;52.162;7.560;2023-05-07T01:38:29;101183.78;;;15.07;58.68
64841;BME280;51307;52.162;7.560;2023-05-07T01:40:55;101192.16;;;15.12;58.43
64841;BME280;51307;52.162;7.560;2023-05-07T01:43:21;101188.03;;;15.25;57.54
64841;BME280;51307;52.162;7.560;2023-05-07T01:45:47;101181.88;;;15.31;57.31
64841;BME280;51307;52.162;7.560;2023-05-07T01:48:15;101185.03;;;15.20;57.44
64841;BME280;51307;52.162;7.560;2023-05-07T01:50:41;101180.84;;;15.17;57.64
64841;BME280;51307;52.162;7.560;2023-05-07T01:53:08;101181.03;;;15.16;57.75
64841;BME280;51307;52.162;7.560;2023-05-07T01:55:33;101190.78;;;15.17;57.50
64841;BME280;51307;52.162;7.560;2023-05-07T01:57:59;101184.38;;;14.94;58.17
64841;BME280;51307;52.162;7.560;2023-05-07T02:00:25;101174.84;;;15.07;57.72
64841;BME280;51307;52.162;7.560;2023-05-07T02:02:50;101179.22;;;15.08;57.29
64841;BME280;51307;52.162;7.560;2023-05-07T02:05:16;101177.22;;;15.10;57.27
64841;BME280;51307;52.162;7.560;2023-05-07T02:07:42;101185.00;;;15.05;57.33
64841;BME280;51307;52.162;7.560;2023-05-07T02:10:08;101183.78;;;15.07;57.23
64841;BME280;51307;52.162;7.560;2023-05-07T02:12:33;101185.50;;;15.00;57.52
64841;BME280;51307;52.162;7.560;2023-05-07T02:14:59;101178.81;;;14.96;57.59
64841;BME280;51307;52.162;7.560;2023-05-07T02:17:25;101180.19;;;14.92;57.54
64841;BME280;51307;52.162;7.560;2023-05-07T02:19:51;101182.25;;;14.90;57.68
64841;BME280;51307;52.162;7.560;2023-05-07T02:22:17;101189.28;;;14.91;57.46
64841;BME280;51307;52.162;7.560;2023-05-07T02:24:43;101184.56;;;14.93;57.14
64841;BME280;51307;52.162;7.560;2023-05-07T02:27:09;101190.16;;;14.60;58.15
64841;BME280;51307;52.162;7.560;2023-05-07T02:29:35;101188.41;;;14.75;58.06
64841;BME280;51307;52.162;7.560;2023-05-07T02:32:00;101194.28;;;14.71;57.87
64841;BME280;51307;52.162;7.560;2023-05-07T02:34:26;101203.38;;;14.78;57.58
64841;BME280;51307;52.162;7.560;2023-05-07T02:36:52;101193.66;;;14.69;57.83
64841;BME280;51307;52.162;7.560;2023-05-07T02:39:17;101194.75;;;14.51;58.40
64841;BME280;51307;52.162;7.560;2023-05-07T02:41:43;101194.03;;;14.57;58.34
64841;BME280;51307;52.162;7.560;2023-05-07T02:44:08;101206.81;;;14.63;57.93
64841;BME280;51307;52.162;7.560;2023-05-07T02:46:34;101207.53;;;14.49;58.21
64841;BME280;51307;52.162;7.560;2023-05-07T02:49:00;101194.16;;;14.64;57.99
64841;BME280;51307;52.162;7.560;2023-05-07T02:51:25;101199.34;;;14.74;57.41
64841;BME280;51307;52.162;7.560;2023-05-07T02:53:51;101200.34;;;14.50;58.20
64841;BME280;51307;52.162;7.560;2023-05-07T02:56:16;101199.09;;;14.60;57.64
64841;BME280;51307;52.162;7.560;2023-05-07T02:58:42;101194.47;;;14.69;57.41
64841;BME280;51307;52.162;7.560;2023-05-07T03:01:08;101195.47;;;14.45;58.12
64841;BME280;51307;52.162;7.560;2023-05-07T03:03:34;101196.16;;;14.70;57.27
64841;BME280;51307;52.162;7.560;2023-05-07T03:06:00;101192.81;;;14.68;57.39
64841;BME280;51307;52.162;7.560;2023-05-07T03:08:26;101188.31;;;14.60;57.58
64841;BME280;51307;52.162;7.560;2023-05-07T03:10:52;101187.97;;;14.63;57.49
64841;BME280;51307;52.162;7.560;2023-05-07T03:13:18;101191.69;;;14.23;58.58
64841;BME280;51307;52.162;7.560;2023-05-07T03:15:43;101184.69;;;14.45;57.89
64841;BME280;51307;52.162;7.560;2023-05-07T03:18:09;101181.34;;;14.43;58.12
64841;BME280;51307;52.162;7.560;2023-05-07T03:20:34;101187.50;;;14.52;57.48
64841;BME280;51307;52.162;7.560;2023-05-07T03:23:01;101184.94;;;14.58;57.06
64841;BME280;51307;52.162;7.560;2023-05-07T03:25:27;101179.44;;;14.52;57.55
64841;BME280;51307;52.162;7.560;2023-05-07T03:27:53;101178.34;;;14.38;57.55
64841;BME280;51307;52.162;7.560;2023-05-07T03:30:18;101175.91;;;14.51;57.30
64841;BME280;51307;52.162;7.560;2023-05-07T03:32:45;101177.94;;;14.49;57.44
64841;BME280;51307;52.162;7.560;2023-05-07T03:35:11;101180.16;;;14.45;57.12
64841;BME280;51307;52.162;7.560;2023-05-07T03:37:37;101185.19;;;14.49;57.33
64841;BME280;51307;52.162;7.560;2023-05-07T03:40:03;101176.66;;;14.37;57.63
64841;BME280;51307;52.162;7.560;2023-05-07T03:42:29;101178.84;;;14.41;57.49
64841;BME280;51307;52.162;7.560;2023-05-07T03:44:54;101192.34;;;14.33;57.70
64841;BME280;51307;52.162;7.560;2023-05-07T03:47:20;101183.63;;;14.15;58.00
64841;BME280;51307;52.162;7.560;2023-05-07T03:49:45;101186.78;;;14.35;57.48
64841;BME280;51307;52.162;7.560;2023-05-07T03:52:11;101184.81;;;14.12;58.15
64841;BME280;51307;52.162;7.560;2023-05-07T03:54:36;101188.28;;;14.37;57.73
64841;BME280;51307;52.162;7.560;2023-05-07T03:57:01;101197.22;;;14.21;57.88
64841;BME280;51307;52.162;7.560;2023-05-07T03:59:27;101186.84;;;14.10;58.54
64841;BME280;51307;52.162;7.560;2023-05-07T04:01:52;101196.34;;;14.29;57.86
64841;BME280;51307;52.162;7.560;2023-05-07T04:04:18;101194.34;;;14.31;57.90
64841;BME280;51307;52.162;7.560;2023-05-07T04:06:43;101196.34;;;14.29;57.56
64841;BME280;51307;52.162;7.560;2023-05-07T04:09:09;101203.25;;;14.23;57.92
64841;BME280;51307;52.162;7.560;2023-05-07T04:11:35;101200.47;;;14.08;58.04
64841;BME280;51307;52.162;7.560;2023-05-07T04:14:01;101204.00;;;14.09;58.21
64841;BME280;51307;52.162;7.560;2023-05-07T04:16:27;101203.97;;;14.17;57.90
64841;BME280;51307;52.162;7.560;2023-05-07T04:18:52;101206.81;;;14.16;57.91
64841;BME280;51307;52.162;7.560;2023-05-07T04:21:19;101206.25;;;13.81;58.77
64841;BME280;51307;52.162;7.560;2023-05-07T04:23:46;101208.88;;;14.13;58.47
64841;BME280;51307;52.162;7.560;2023-05-07T04:26:12;101205.97;;;14.23;57.70
64841;BME280;51307;52.162;7.560;2023-05-07T04:28:38;101209.41;;;13.92;58.81
64841;BME280;51307;52.162;7.560;2023-05-07T04:31:03;101208.50;;;14.17;58.27
64841;BME280;51307;52.162;7.560;2023-05-07T04:33:29;101210.31;;;13.85;59.38
64841;BME280;51307;52.162;7.560;2023-05-07T04:35:54;101204.88;;;14.01;58.64
64841;BME280;51307;52.162;7.560;2023-05-07T04:38:20;101204.16;;;14.07;58.41
64841;BME280;51307;52.162;7.560;2023-05-07T04:40:45;101205.16;;;14.15;58.17
64841;BME280;51307;52.162;7.560;2023-05-07T04:43:12;101204.50;;;14.12;58.20
64841;BME280;51307;52.162;7.560;2023-05-07T04:45:38;101202.38;;;14.00;58.75
64841;BME280;51307;52.162;7.560;2023-05-07T04:48:06;101206.72;;;14.09;58.23
64841;BME280;51307;52.162;7.560;2023-05-07T04:50:32;101208.19;;;14.11;58.05
64841;BME280;51307;52.162;7.560;2023-05-07T04:52:58;101210.09;;;13.94;58.36
64841;BME280;51307;52.162;7.560;2023-05-07T04:55:23;101212.19;;;14.16;58.10
64841;BME280;51307;52.162;7.560;2023-05-07T04:57:49;101214.91;;;14.16;57.69
64841;BME280;51307;52.162;7.560;2023-05-07T05:00:15;101223.88;;;14.00;58.36
64841;BME280;51307;52.162;7.560;2023-05-07T05:02:41;101228.03;;;14.19;57.92
64841;BME280;51307;52.162;7.560;2023-05-07T05:05:07;101230.88;;;14.17;58.18
64841;BME280;51307;52.162;7.560;2023-05-07T05:07:33;101217.59;;;14.16;58.28
64841;BME280;51307;52.162;7.560;2023-05-07T05:09:58;101221.94;;;14.25;57.98
64841;BME280;51307;52.162;7.560;2023-05-07T05:12:24;101226.16;;;14.19;58.19
64841;BME280;51307;52.162;7.560;2023-05-07T05:14:49;101225.47;;;14.25;57.94
64841;BME280;51307;52.162;7.560;2023-05-07T05:17:15;101218.22;;;14.26;57.91
64841;BME280;51307;52.162;7.560;2023-05-07T05:19:41;101226.31;;;14.26;58.18
64841;BME280;51307;52.162;7.560;2023-05-07T05:22:06;101225.13;;;14.28;58.26
64841;BME280;51307;52.162;7.560;2023-05-07T05:24:32;101228.63;;;14.29;58.12
64841;BME280;51307;52.162;7.560;2023-05-07T05:26:57;101226.66;;;14.31;58.36
64841;BME280;51307;52.162;7.560;2023-05-07T05:29:25;101225.31;;;14.27;58.39
64841;BME280;51307;52.162;7.560;2023-05-07T05:31:50;101229.22;;;14.16;58.45
64841;BME280;51307;52.162;7.560;2023-05-07T05:34:16;101228.81;;;14.27;58.42
64841;BME280;51307;52.162;7.560;2023-05-07T05:36:42;101227.16;;;14.35;58.31
64841;BME280;51307;52.162;7.560;2023-05-07T05:39:08;101226.81;;;14.29;58.42
64841;BME280;51307;52.162;7.560;2023-05-07T05:41:34;101235.06;;;14.28;58.37
64841;BME280;51307;52.162;7.560;2023-05-07T05:43:59;101235.41;;;14.33;58.39
64841;BME280;51307;52.162;7.560;2023-05-07T05:46:25;101239.72;;;14.42;57.73
64841;BME280;51307;52.162;7.560;2023-05-07T05:48:50;101253.34;;;14.41;57.40
64841;BME280;51307;52.162;7.560;2023-05-07T05:51:16;101245.03;;;14.11;58.27
64841;BME280;51307;52.162;7.560;2023-05-07T05:53:41;101247.28;;;14.47;57.69
64841;BME280;51307;52.162;7.560;2023-05-07T05:56:07;101246.78;;;14.43;57.54
64841;BME280;51307;52.162;7.560;2023-05-07T05:58:32;101241.09;;;14.38;57.39
64841;BME280;51307;52.162;7.560;2023-05-07T06:00:58;101251.19;;;14.36;58.06
64841;BME280;51307;52.162;7.560;2023-05-07T06:03:24;101251.13;;;14.53;57.55
64841;BME280;51307;52.162;7.560;2023-05-07T06:05:49;101251.50;;;14.50;57.31
64841;BME280;51307;52.162;7.560;2023-05-07T06:08:15;101257.19;;;14.46;57.46
64841;BME280;51307;52.162;7.560;2023-05-07T06:10:43;101264.13;;;14.41;57.86
64841;BME280;51307;52.162;7.560;2023-05-07T06:13:09;101257.88;;;14.49;57.42
64841;BME280;51307;52.162;7.560;2023-05-07T06:15:34;101269.09;;;14.60;57.28
64841;BME280;51307;52.162;7.560;2023-05-07T06:18:00;101264.53;;;14.61;57.16
64841;BME280;51307;52.162;7.560;2023-05-07T06:20:26;101269.28;;;14.59;57.33
64841;BME280;51307;52.162;7.560;2023-05-07T06:22:51;101269.97;;;14.53;57.78
64841;BME280;51307;52.162;7.560;2023-05-07T06:25:17;101278.06;;;14.53;57.78
64841;BME280;51307;52.162;7.560;2023-05-07T06:27:42;101284.63;;;14.50;57.60
64841;BME280;51307;52.162;7.560;2023-05-07T06:30:08;101285.03;;;14.70;57.01
64841;BME280;51307;52.162;7.560;2023-05-07T06:32:34;101282.63;;;14.52;58.15
64841;BME280;51307;52.162;7.560;2023-05-07T06:34:59;101289.06;;;14.74;57.64
64841;BME280;51307;52.162;7.560;2023-05-07T06:37:25;101289.19;;;14.81;56.98
64841;BME280;51307;52.162;7.560;2023-05-07T06:39:50;101285.34;;;14.75;57.40
64841;BME280;51307;52.162;7.560;2023-05-07T06:42:16;101280.63;;;14.77;57.50
64841;BME280;51307;52.162;7.560;2023-05-07T06:44:41;101281.47;;;14.78;57.01
64841;BME280;51307;52.162;7.560;2023-05-07T06:47:07;101283.84;;;14.73;56.99
64841;BME280;51307;52.162;7.560;2023-05-07T06:49:32;101293.72;;;14.89;57.00
64841;BME280;51307;52.162;7.560;2023-05-07T06:51:58;101293.41;;;14.84;57.56
64841;BME280;51307;52.162;7.560;2023-05-07T06:54:23;101292.25;;;14.78;57.52
64841;BME280;51307;52.162;7.560;2023-05-07T06:56:49;101301.13;;;14.87;57.08
64841;BME280;51307;52.162;7.560;2023-05-07T06:59:15;101296.72;;;14.94;57.13
64841;BME280;51307;52.162;7.560;2023-05-07T07:01:41;101297.03;;;14.99;56.97
64841;BME280;51307;52.162;7.560;2023-05-07T07:04:07;101298.91;;;14.90;57.07
64841;BME280;51307;52.162;7.560;2023-05-07T07:06:32;101303.06;;;15.01;56.76
64841;BME280;51307;52.162;7.560;2023-05-07T07:08:59;101293.47;;;14.99;57.31
64841;BME280;51307;52.162;7.560;2023-05-07T07:11:25;101298.22;;;14.96;57.18
64841;BME280;51307;52.162;7.560;2023-05-07T07:13:50;101293.53;;;14.90;57.01
64841;BME280;51307;52.162;7.560;2023-05-07T07:16:16;101299.00;;;15.05;56.81
64841;BME280;51307;52.162;7.560;2023-05-07T07:18:42;101294.63;;;15.04;57.01
64841;BME280;51307;52.162;7.560;2023-05-07T07:21:07;101289.41;;;15.03;57.05
64841;BME280;51307;52.162;7.560;2023-05-07T07:23:33;101289.78;;;15.00;56.88
64841;BME280;51307;52.162;7.560;2023-05-07T07:25:58;101296.47;;;15.04;57.03
64841;BME280;51307;52.162;7.560;2023-05-07T07:28:24;101293.13;;;15.02;56.96
64841;BME280;51307;52.162;7.560;2023-05-07T07:30:49;101288.03;;;15.07;56.77
64841;BME280;51307;52.162;7.560;2023-05-07T07:33:15;101291.09;;;15.04;57.55
64841;BME280;51307;52.162;7.560;2023-05-07T07:35:41;101302.50;;;15.14;56.90
64841;BME280;51307;52.162;7.560;2023-05-07T07:38:06;101301.63;;;15.13;57.17
64841;BME280;51307;52.162;7.560;2023-05-07T07:40:34;101300.56;;;15.23;56.88
64841;BME280;51307;52.162;7.560;2023-05-07T07:43:00;101306.78;;;15.23;57.16
64841;BME280;51307;52.162;7.560;2023-05-07T07:45:26;101310.03;;;15.19;57.01
64841;BME280;51307;52.162;7.560;2023-05-07T07:47:52;101314.81;;;15.08;57.24
64841;BME280;51307;52.162;7.560;2023-05-07T07:50:18;101312.78;;;15.34;56.52
64841;BME280;51307;52.162;7.560;2023-05-07T07:52:44;101308.06;;;15.36;56.59
64841;BME280;51307;52.162;7.560;2023-05-07T07:55:09;101311.59;;;15.36;56.25
64841;BME280;51307;52.162;7.560;2023-05-07T07:57:35;101303.31;;;15.38;56.59
64841;BME280;51307;52.162;7.560;2023-05-07T08:00:01;101304.59;;;15.50;56.08
64841;BME280;51307;52.162;7.560;2023-05-07T08:02:26;101301.28;;;15.48;56.16
64841;BME280;51307;52.162;7.560;2023-05-07T08:04:52;101301.00;;;15.58;56.15
64841;BME280;51307;52.162;7.560;2023-05-07T08:07:17;101300.13;;;15.66;56.07
64841;BME280;51307;52.162;7.560;2023-05-07T08:09:46;101305.63;;;15.72;55.84
64841;BME280;51307;52.162;7.560;2023-05-07T08:12:12;101309.53;;;15.70;55.22
64841;BME280;51307;52.162;7.560;2023-05-07T08:14:38;101315.13;;;15.83;55.08
64841;BME280;51307;52.162;7.560;2023-05-07T08:17:06;101305.50;;;15.66;55.22
64841;BME280;51307;52.162;7.560;2023-05-07T08:19:31;101314.31;;;15.83;54.91
64841;BME280;51307;52.162;7.560;2023-05-07T08:21:57;101310.53;;;15.69;55.49
64841;BME280;51307;52.162;7.560;2023-05-07T08:24:23;101304.16;;;15.85;55.51
64841;BME280;51307;52.162;7.560;2023-05-07T08:26:48;101307.53;;;15.87;55.23
64841;BME280;51307;52.162;7.560;2023-05-07T08:29:14;101311.63;;;15.83;55.60
64841;BME280;51307;52.162;7.560;2023-05-07T08:31:40;101309.84;;;15.90;54.82
64841;BME280;51307;52.162;7.560;2023-05-07T08:34:06;101307.78;;;15.92;54.84
64841;BME280;51307;52.162;7.560;2023-05-07T08:36:31;101316.28;;;16.04;54.77
64841;BME280;51307;52.162;7.560;2023-05-07T08:38:57;101312.56;;;15.90;55.47
64841;BME280;51307;52.162;7.560;2023-05-07T08:41:23;101314.16;;;16.14;54.60
64841;BME280;51307;52.162;7.560;2023-05-07T08:43:50;101323.56;;;16.03;54.46
64841;BME280;51307;52.162;7.560;2023-05-07T08:46:20;101315.47;;;16.18;54.04
64841;BME280;51307;52.162;7.560;2023-05-07T08:48:51;101320.78;;;16.11;54.93
64841;BME280;51307;52.162;7.560;2023-05-07T08:51:19;101305.16;;;16.22;55.08
64841;BME280;51307;52.162;7.560;2023-05-07T08:53:47;101315.84;;;16.15;55.09
64841;BME280;51307;52.162;7.560;2023-05-07T08:56:16;101314.34;;;16.12;55.01
64841;BME280;51307;52.162;7.560;2023-05-07T08:58:43;101322.44;;;16.12;54.66
64841;BME280;51307;52.162;7.560;2023-05-07T09:01:12;101321.69;;;16.19;54.37
64841;BME280;51307;52.162;7.560;2023-05-07T09:03:39;101322.25;;;16.14;54.88
64841;BME280;51307;52.162;7.560;2023-05-07T09:06:05;101318.91;;;16.27;54.92
64841;BME280;51307;52.162;7.560;2023-05-07T09:08:33;101316.50;;;16.32;54.43
64841;BME280;51307;52.162;7.560;2023-05-07T09:10:59;101324.31;;;16.27;54.63
64841;BME280;51307;52.162;7.560;2023-05-07T09:13:27;101318.75;;;16.28;53.94
64841;BME280;51307;52.162;7.560;2023-05-07T09:15:53;101321.53;;;16.35;53.95
64841;BME280;51307;52.162;7.560;2023-05-07T09:18:18;101315.28;;;16.35;54.26
64841;BME280;51307;52.162;7.560;2023-05-07T09:20:44;101323.81;;;16.46;54.27
64841;BME280;51307;52.162;7.560;2023-05-07T09:23:09;101318.84;;;16.35;54.69
64841;BME280;51307;52.162;7.560;2023-05-07T09:25:36;101320.28;;;16.46;54.50
64841;BME280;51307;52.162;7.560;2023-05-07T09:28:03;101317.19;;;16.49;54.31
64841;BME280;51307;52.162;7.560;2023-05-07T09:30:30;101317.28;;;16.56;54.04
64841;BME280;51307;52.162;7.560;2023-05-07T09:32:58;101319.41;;;16.60;54.53
64841;BME280;51307;52.162;7.560;2023-05-07T09:35:25;101310.56;;;16.67;54.60
64841;BME280;51307;52.162;7.560;2023-05-07T09:37:56;101312.97;;;16.76;54.01
64841;BME280;51307;52.162;7.560;2023-05-07T09:40:29;101315.75;;;16.83;53.30
64841;BME280;51307;52.162;7.560;2023-05-07T09:42:55;101315.94;;;16.82;53.82
64841;BME280;51307;52.162;7.560;2023-05-07T09:45:30;101317.72;;;16.89;53.88
64841;BME280;51307;52.162;7.560;2023-05-07T09:47:57;101314.16;;;16.89;53.59
64841;BME280;51307;52.162;7.560;2023-05-07T09:50:28;101317.50;;;16.91;53.43
64841;BME280;51307;52.162;7.560;2023-05-07T09:52:55;101322.41;;;17.02;52.91
64841;BME280;51307;52.162;7.560;2023-05-07T09:55:21;101316.78;;;17.19;53.44
64841;BME280;51307;52.162;7.560;2023-05-07T09:57:52;101316.72;;;17.12;53.80
64841;BME280;51307;52.162;7.560;2023-05-07T10:00:19;101313.44;;;17.17;53.28
64841;BME280;51307;52.162;7.560;2023-05-07T10:02:49;101307.63;;;17.20;53.88
64841;BME280;51307;52.162;7.560;2023-05-07T10:05:18;101319.09;;;17.22;53.50
64841;BME280;51307;52.162;7.560;2023-05-07T10:07:44;101315.19;;;17.24;53.29
64841;BME280;51307;52.162;7.560;2023-05-07T10:10:10;101304.38;;;17.24;53.73
64841;BME280;51307;52.162;7.560;2023-05-07T10:12:36;101306.88;;;17.26;52.91
64841;BME280;51307;52.162;7.560;2023-05-07T10:15:11;101314.03;;;17.34;53.74
64841;BME280;51307;52.162;7.560;2023-05-07T10:17:40;101321.50;;;17.31;53.34
64841;BME280;51307;52.162;7.560;2023-05-07T10:20:07;101315.63;;;17.43;52.50
64841;BME280;51307;52.162;7.560;2023-05-07T10:22:43;101322.69;;;17.44;52.96
64841;BME280;51307;52.162;7.560;2023-05-07T10:25:18;101320.50;;;17.54;53.09
64841;BME280;51307;52.162;7.560;2023-05-07T10:27:45;101320.97;;;17.58;52.51
64841;BME280;51307;52.162;7.560;2023-05-07T10:33:00;101320.41;;;17.69;51.45
64841;BME280;51307;52.162;7.560;2023-05-07T10:35:37;101320.41;;;17.69;52.86
64841;BME280;51307;52.162;7.560;2023-05-07T10:38:04;101325.88;;;17.76;52.56
64841;BME280;51307;52.162;7.560;2023-05-07T10:40:31;101326.28;;;17.73;52.14
64841;BME280;51307;52.162;7.560;2023-05-07T10:43:00;101325.94;;;17.83;51.54
64841;BME280;51307;52.162;7.560;2023-05-07T10:45:27;101325.06;;;17.75;53.02
64841;BME280;51307;52.162;7.560;2023-05-07T10:48:15;101322.84;;;17.86;52.56
64841;BME280;51307;52.162;7.560;2023-05-07T10:50:42;101324.97;;;17.90;52.96
64841;BME280;51307;52.162;7.560;2023-05-07T10:55:51;101325.28;;;18.02;52.73
64841;BME280;51307;52.162;7.560;2023-05-07T11:00:49;101321.47;;;17.96;52.18
64841;BME280;51307;52.162;7.560;2023-05-07T11:03:14;101322.56;;;18.02;52.76
64841;BME280;51307;52.162;7.560;2023-05-07T11:05:41;101326.78;;;18.11;52.16
64841;BME280;51307;52.162;7.560;2023-05-07T11:08:08;101319.31;;;18.13;51.64
64841;BME280;51307;52.162;7.560;2023-05-07T11:13:15;101317.88;;;18.18;51.02
64841;BME280;51307;52.162;7.560;2023-05-07T11:15:47;101313.47;;;18.17;51.74
64841;BME280;51307;52.162;7.560;2023-05-07T11:18:17;101313.69;;;18.15;51.68
64841;BME280;51307;52.162;7.560;2023-05-07T11:20:56;101309.59;;;18.26;51.65
64841;BME280;51307;52.162;7.560;2023-05-07T11:26:07;101300.28;;;18.35;50.79
64841;BME280;51307;52.162;7.560;2023-05-07T11:28:42;101305.56;;;18.43;51.76
64841;BME280;51307;52.162;7.560;2023-05-07T11:31:09;101303.53;;;18.52;51.14
64841;BME280;51307;52.162;7.560;2023-05-07T11:33:36;101306.44;;;18.51;52.43
64841;BME280;51307;52.162;7.560;2023-05-07T11:36:05;101301.06;;;18.57;51.25
64841;BME280;51307;52.162;7.560;2023-05-07T11:38:37;101298.38;;;18.64;51.24
64841;BME280;51307;52.162;7.560;2023-05-07T11:41:04;101299.63;;;18.68;51.32
64841;BME280;51307;52.162;7.560;2023-05-07T11:43:31;101298.81;;;18.74;51.07
64841;BME280;51307;52.162;7.560;2023-05-07T11:46:10;101297.16;;;18.80;50.04
64841;BME280;51307;52.162;7.560;2023-05-07T11:48:36;101298.84;;;18.81;50.75
64841;BME280;51307;52.162;7.560;2023-05-07T11:51:04;101302.44;;;18.88;50.21
64841;BME280;51307;52.162;7.560;2023-05-07T11:53:48;101299.91;;;18.87;50.04
64841;BME280;51307;52.162;7.560;2023-05-07T11:56:16;101296.34;;;18.79;50.92
64841;BME280;51307;52.162;7.560;2023-05-07T11:58:43;101300.50;;;18.75;49.53
64841;BME280;51307;52.162;7.560;2023-05-07T12:01:12;101295.91;;;18.83;50.04
64841;BME280;51307;52.162;7.560;2023-05-07T12:03:40;101291.59;;;18.88;51.16
64841;BME280;51307;52.162;7.560;2023-05-07T12:06:10;101294.94;;;18.97;50.21
64841;BME280;51307;52.162;7.560;2023-05-07T12:08:38;101295.56;;;18.92;49.20
64841;BME280;51307;52.162;7.560;2023-05-07T12:11:07;101300.34;;;18.97;50.65
64841;BME280;51307;52.162;7.560;2023-05-07T12:13:33;101296.63;;;18.98;50.43
64841;BME280;51307;52.162;7.560;2023-05-07T12:15:58;101302.66;;;19.00;49.56
64841;BME280;51307;52.162;7.560;2023-05-07T12:18:24;101303.09;;;19.10;49.77
64841;BME280;51307;52.162;7.560;2023-05-07T12:20:50;101302.47;;;19.15;48.48
64841;BME280;51307;52.162;7.560;2023-05-07T12:23:17;101303.34;;;19.15;49.59
64841;BME280;51307;52.162;7.560;2023-05-07T12:25:43;101300.63;;;19.15;49.80
64841;BME280;51307;52.162;7.560;2023-05-07T12:28:17;101302.34;;;19.23;49.10
64841;BME280;51307;52.162;7.560;2023-05-07T12:30:45;101302.34;;;19.30;49.51
64841;BME280;51307;52.162;7.560;2023-05-07T12:33:11;101300.03;;;19.34;49.43
64841;BME280;51307;52.162;7.560;2023-05-07T12:35:40;101302.97;;;19.39;48.43
64841;BME280;51307;52.162;7.560;2023-05-07T12:38:14;101299.03;;;19.41;49.09
64841;BME280;51307;52.162;7.560;2023-05-07T12:40:48;101304.25;;;19.50;48.02
64841;BME280;51307;52.162;7.560;2023-05-07T12:43:24;101302.78;;;19.40;48.69
64841;BME280;51307;52.162;7.560;2023-05-07T12:45:51;101299.03;;;19.48;48.65
64841;BME280;51307;52.162;7.560;2023-05-07T12:48:19;101306.34;;;19.47;48.15
64841;BME280;51307;52.162;7.560;2023-05-07T12:50:49;101309.47;;;19.58;48.14
64841;BME280;51307;52.162;7.560;2023-05-07T12:53:14;101301.97;;;19.53;48.80
64841;BME280;51307;52.162;7.560;2023-05-07T12:58:07;101300.06;;;19.67;48.72
64841;BME280;51307;52.162;7.560;2023-05-07T13:00:37;101299.03;;;19.75;47.04
64841;BME280;51307;52.162;7.560;2023-05-07T13:03:03;101296.13;;;19.76;47.83